Nyk Aquarius — HPPZ — position and weather

sailwx.info

Track history (hours):
 
Tides and Currents Weather Stations Pressure Air Temp Water Temp Dewpoint Dewpoint Depression Visibility Wind Speed Wind Dir Waves Ship Positions

Nyk Aquarius

Last reported at 2018-Jan-12 14:59 UTC. Time now 2018-Jan-19 11:54 UTC.
Position N 34°27' E 139°00'.

Length 299.9 m; beam 40 m.

Type: Other ship. MMSI: 353295000.

Date/timePositionNaut miles runAvg speedWind from/ knotsBaromVisibWave heightAir tempDewpointWater temp
2018-Jan-12 14:59N 34°27' E 139°00'1321.7
2018-Jan-12 14:24N 34°20' E 138°47'921.7
2018-Jan-12 13:58N 34°17' E 138°36'1021.6
2018-Jan-12 13:29N 34°14' E 138°25'1121.3
2018-Jan-12 12:58N 34°09' E 138°12'920.7
2018-Jan-12 12:30N 34°04' E 138°02'  
2018-Jan-06 12:10N 31°05' E 122°31'4 7.6
2018-Jan-06 11:37N 31°06' E 122°26'111.6
2018-Jan-06 11:30N 31°06' E 122°24'612.3
2018-Jan-06 11:00N 31°07' E 122°17'713.8
2018-Jan-06 10:29N 31°11' E 122°10'713.5
2018-Jan-06 09:58N 31°14' E 122°03'612.8
2018-Jan-06 09:30N 31°15' E 121°56'813.6
2018-Jan-06 08:56N 31°18' E 121°48'612.6
2018-Jan-06 08:28N 31°20' E 121°41'6 8.6
2018-Jan-06 07:46N 31°23' E 121°35'0 0.1
2018-Jan-06 06:22N 31°22' E 121°35'0 0.0
2018-Jan-06 04:58N 31°23' E 121°35'0 0.0
2018-Jan-06 01:22N 31°23' E 121°35'0 0.0
2018-Jan-05 23:28N 31°22' E 121°35'0 0.0
2018-Jan-05 22:52N 31°22' E 121°35'0 0.1
2018-Jan-05 22:22N 31°22' E 121°35'0 0.0
2018-Jan-05 21:52N 31°23' E 121°35'0 0.1
2018-Jan-05 21:25N 31°23' E 121°35'0 0.1
2018-Jan-05 20:55N 31°23' E 121°35'0 0.1
2018-Jan-05 20:19N 31°22' E 121°35'0 0.0
2018-Jan-05 19:58N 31°22' E 121°35'0 0.0
2018-Jan-05 18:31N 31°23' E 121°35'0 1.1
2018-Jan-05 18:28N 31°23' E 121°35'0 0.0
2018-Jan-05 17:37N 31°23' E 121°35'0 0.3
2018-Jan-05 17:28N 31°23' E 121°35'0 0.0
2018-Jan-05 16:55N 31°22' E 121°35'0 0.1
2018-Jan-05 16:28N 31°22' E 121°35'0 0.1
2018-Jan-05 15:58N 31°22' E 121°35'0 0.1
2018-Jan-05 15:28N 31°23' E 121°35'0 0.0
2018-Jan-05 14:58N 31°22' E 121°35'0 0.0
2018-Jan-05 14:19N 31°23' E 121°35'0 0.2
2018-Jan-05 13:58N 31°22' E 121°35'0 0.0
2018-Jan-05 04:29N 31°22' E 121°35'1 2.2
2018-Jan-05 04:00N 31°23' E 121°36'610.8
2018-Jan-05 03:26N 31°20' E 121°42'512.8
2018-Jan-05 03:01N 31°17' E 121°48'2710.9
2018-Jan-05 00:30N 31°07' E 122°18'  
Track history (hours):
 
Tides and Currents Weather Stations Pressure Air Temp Water Temp Dewpoint Dewpoint Depression Visibility Wind Speed Wind Dir Waves Ship Positions

Nyk Aquarius

Last reported at 2018-Jan-12 14:59 UTC. Time now 2018-Jan-19 11:54 UTC.
Position N 34°27' E 139°00'.

Length 299.9 m; beam 40 m.

Type: Other ship. MMSI: 353295000.

Date/timePositionNaut miles runAvg speedWind from/ knotsBaromVisibWave heightAir tempDewpointWater temp
2018-Jan-12 14:59N 34°27' E 139°00'1321.7
2018-Jan-12 14:24N 34°20' E 138°47'921.7
2018-Jan-12 13:58N 34°17' E 138°36'1021.6
2018-Jan-12 13:29N 34°14' E 138°25'1121.3
2018-Jan-12 12:58N 34°09' E 138°12'920.7
2018-Jan-12 12:30N 34°04' E 138°02'  
2018-Jan-06 12:10N 31°05' E 122°31'4 7.6
2018-Jan-06 11:37N 31°06' E 122°26'111.6
2018-Jan-06 11:30N 31°06' E 122°24'612.3
2018-Jan-06 11:00N 31°07' E 122°17'713.8
2018-Jan-06 10:29N 31°11' E 122°10'713.5
2018-Jan-06 09:58N 31°14' E 122°03'612.8
2018-Jan-06 09:30N 31°15' E 121°56'813.6
2018-Jan-06 08:56N 31°18' E 121°48'612.6
2018-Jan-06 08:28N 31°20' E 121°41'6 8.6
2018-Jan-06 07:46N 31°23' E 121°35'0 0.1
2018-Jan-06 06:22N 31°22' E 121°35'0 0.0
2018-Jan-06 04:58N 31°23' E 121°35'0 0.0
2018-Jan-06 01:22N 31°23' E 121°35'0 0.0
2018-Jan-05 23:28N 31°22' E 121°35'0 0.0
2018-Jan-05 22:52N 31°22' E 121°35'0 0.1
2018-Jan-05 22:22N 31°22' E 121°35'0 0.0
2018-Jan-05 21:52N 31°23' E 121°35'0 0.1
2018-Jan-05 21:25N 31°23' E 121°35'0 0.1
2018-Jan-05 20:55N 31°23' E 121°35'0 0.1
2018-Jan-05 20:19N 31°22' E 121°35'0 0.0
2018-Jan-05 19:58N 31°22' E 121°35'0 0.0
2018-Jan-05 18:31N 31°23' E 121°35'0 1.1
2018-Jan-05 18:28N 31°23' E 121°35'0 0.0
2018-Jan-05 17:37N 31°23' E 121°35'0 0.3
2018-Jan-05 17:28N 31°23' E 121°35'0 0.0
2018-Jan-05 16:55N 31°22' E 121°35'0 0.1
2018-Jan-05 16:28N 31°22' E 121°35'0 0.1
2018-Jan-05 15:58N 31°22' E 121°35'0 0.1
2018-Jan-05 15:28N 31°23' E 121°35'0 0.0
2018-Jan-05 14:58N 31°22' E 121°35'0 0.0
2018-Jan-05 14:19N 31°23' E 121°35'0 0.2
2018-Jan-05 13:58N 31°22' E 121°35'0 0.0
2018-Jan-05 04:29N 31°22' E 121°35'1 2.2
2018-Jan-05 04:00N 31°23' E 121°36'610.8
2018-Jan-05 03:26N 31°20' E 121°42'512.8
2018-Jan-05 03:01N 31°17' E 121°48'2710.9
2018-Jan-05 00:30N 31°07' E 122°18'  

Dump ship's entire track history